sensor_id;sensor_type;location;lat;lon;timestamp;P1;durP1;ratioP1;P2;durP2;ratioP2
1054;SDS011;516;51.482;7.120;2023-08-06T00:00:03;5.33;;;4.10;;
1054;SDS011;516;51.482;7.120;2023-08-06T00:05:33;5.20;;;3.43;;
1054;SDS011;516;51.482;7.120;2023-08-06T00:11:03;4.73;;;4.20;;
1054;SDS011;516;51.482;7.120;2023-08-06T00:16:33;5.47;;;4.37;;
1054;SDS011;516;51.482;7.120;2023-08-06T00:22:03;5.80;;;4.73;;
1054;SDS011;516;51.482;7.120;2023-08-06T00:27:33;7.53;;;5.07;;
1054;SDS011;516;51.482;7.120;2023-08-06T00:33:03;6.03;;;5.43;;
1054;SDS011;516;51.482;7.120;2023-08-06T00:38:32;7.23;;;5.10;;
1054;SDS011;516;51.482;7.120;2023-08-06T00:44:02;6.33;;;4.87;;
1054;SDS011;516;51.482;7.120;2023-08-06T00:49:32;9.73;;;6.00;;
1054;SDS011;516;51.482;7.120;2023-08-06T00:55:01;10.50;;;5.03;;
1054;SDS011;516;51.482;7.120;2023-08-06T01:00:31;5.27;;;4.77;;
1054;SDS011;516;51.482;7.120;2023-08-06T01:06:01;5.13;;;4.60;;
1054;SDS011;516;51.482;7.120;2023-08-06T01:11:38;6.87;;;4.50;;
1054;SDS011;516;51.482;7.120;2023-08-06T01:17:13;6.83;;;4.70;;
1054;SDS011;516;51.482;7.120;2023-08-06T01:22:43;5.40;;;4.90;;
1054;SDS011;516;51.482;7.120;2023-08-06T01:28:37;5.23;;;4.73;;
1054;SDS011;516;51.482;7.120;2023-08-06T01:34:22;8.57;;;5.30;;
1054;SDS011;516;51.482;7.120;2023-08-06T01:39:52;7.83;;;4.53;;
1054;SDS011;516;51.482;7.120;2023-08-06T01:45:22;4.90;;;4.40;;
1054;SDS011;516;51.482;7.120;2023-08-06T01:50:52;7.30;;;3.90;;
1054;SDS011;516;51.482;7.120;2023-08-06T01:56:21;10.50;;;4.80;;
1054;SDS011;516;51.482;7.120;2023-08-06T02:01:51;5.70;;;5.10;;
1054;SDS011;516;51.482;7.120;2023-08-06T02:07:21;4.40;;;4.00;;
1054;SDS011;516;51.482;7.120;2023-08-06T02:12:51;7.77;;;4.60;;
1054;SDS011;516;51.482;7.120;2023-08-06T02:18:20;4.87;;;4.10;;
1054;SDS011;516;51.482;7.120;2023-08-06T02:23:50;7.50;;;5.07;;
1054;SDS011;516;51.482;7.120;2023-08-06T02:29:20;7.30;;;4.80;;
1054;SDS011;516;51.482;7.120;2023-08-06T02:34:49;5.23;;;3.80;;
1054;SDS011;516;51.482;7.120;2023-08-06T02:40:19;8.07;;;4.90;;
1054;SDS011;516;51.482;7.120;2023-08-06T02:45:49;5.07;;;4.37;;
1054;SDS011;516;51.482;7.120;2023-08-06T02:51:18;6.53;;;4.10;;
1054;SDS011;516;51.482;7.120;2023-08-06T02:56:30;5.10;;;4.30;;
1054;SDS011;516;51.482;7.120;2023-08-06T03:02:00;8.00;;;3.90;;
1054;SDS011;516;51.482;7.120;2023-08-06T03:07:30;5.00;;;4.50;;
1054;SDS011;516;51.482;7.120;2023-08-06T03:12:59;6.17;;;5.00;;
1054;SDS011;516;51.482;7.120;2023-08-06T03:18:29;4.17;;;3.77;;
1054;SDS011;516;51.482;7.120;2023-08-06T03:23:59;5.13;;;3.87;;
1054;SDS011;516;51.482;7.120;2023-08-06T03:29:28;5.37;;;4.37;;
1054;SDS011;516;51.482;7.120;2023-08-06T03:34:58;6.50;;;4.03;;
1054;SDS011;516;51.482;7.120;2023-08-06T03:40:28;6.67;;;4.43;;
1054;SDS011;516;51.482;7.120;2023-08-06T03:45:57;7.53;;;3.97;;
1054;SDS011;516;51.482;7.120;2023-08-06T03:51:27;4.00;;;3.60;;
1054;SDS011;516;51.482;7.120;2023-08-06T03:57:10;6.40;;;3.50;;
1054;SDS011;516;51.482;7.120;2023-08-06T04:02:39;7.10;;;4.17;;
1054;SDS011;516;51.482;7.120;2023-08-06T04:08:08;8.13;;;4.03;;
1054;SDS011;516;51.482;7.120;2023-08-06T04:13:37;4.97;;;4.43;;
1054;SDS011;516;51.482;7.120;2023-08-06T04:19:06;3.53;;;3.20;;
1054;SDS011;516;51.482;7.120;2023-08-06T04:24:35;5.33;;;3.90;;
1054;SDS011;516;51.482;7.120;2023-08-06T04:30:05;7.83;;;4.57;;
1054;SDS011;516;51.482;7.120;2023-08-06T04:35:35;4.93;;;3.47;;
1054;SDS011;516;51.482;7.120;2023-08-06T04:41:04;10.50;;;4.97;;
1054;SDS011;516;51.482;7.120;2023-08-06T04:46:34;4.70;;;3.60;;
1054;SDS011;516;51.482;7.120;2023-08-06T04:52:03;4.17;;;3.63;;
1054;SDS011;516;51.482;7.120;2023-08-06T04:57:33;6.90;;;4.47;;
1054;SDS011;516;51.482;7.120;2023-08-06T05:03:04;4.80;;;3.30;;
1054;SDS011;516;51.482;7.120;2023-08-06T05:08:33;5.07;;;3.63;;
1054;SDS011;516;51.482;7.120;2023-08-06T05:14:03;4.37;;;3.43;;
1054;SDS011;516;51.482;7.120;2023-08-06T05:19:32;4.50;;;3.57;;
1054;SDS011;516;51.482;7.120;2023-08-06T05:25:02;4.93;;;3.33;;
1054;SDS011;516;51.482;7.120;2023-08-06T05:30:32;4.87;;;2.90;;
1054;SDS011;516;51.482;7.120;2023-08-06T05:36:01;4.80;;;3.37;;
1054;SDS011;516;51.482;7.120;2023-08-06T05:41:31;6.10;;;4.13;;
1054;SDS011;516;51.482;7.120;2023-08-06T05:47:01;4.77;;;3.50;;
1054;SDS011;516;51.482;7.120;2023-08-06T05:52:30;3.13;;;2.77;;
1054;SDS011;516;51.482;7.120;2023-08-06T05:58:00;7.50;;;3.20;;
1054;SDS011;516;51.482;7.120;2023-08-06T06:03:30;5.37;;;3.40;;
1054;SDS011;516;51.482;7.120;2023-08-06T06:08:59;5.40;;;3.40;;
1054;SDS011;516;51.482;7.120;2023-08-06T06:14:29;5.03;;;3.27;;
1054;SDS011;516;51.482;7.120;2023-08-06T06:19:59;3.83;;;3.27;;
1054;SDS011;516;51.482;7.120;2023-08-06T06:25:29;4.43;;;3.77;;
1054;SDS011;516;51.482;7.120;2023-08-06T06:31:01;8.93;;;4.30;;
1054;SDS011;516;51.482;7.120;2023-08-06T06:36:32;5.50;;;3.50;;
1054;SDS011;516;51.482;7.120;2023-08-06T06:42:01;5.30;;;3.90;;
1054;SDS011;516;51.482;7.120;2023-08-06T06:47:31;4.50;;;3.40;;
1054;SDS011;516;51.482;7.120;2023-08-06T06:53:01;5.40;;;3.40;;
1054;SDS011;516;51.482;7.120;2023-08-06T07:07:55;5.80;;;3.30;;
1054;SDS011;516;51.482;7.120;2023-08-06T07:13:24;4.13;;;3.37;;
1054;SDS011;516;51.482;7.120;2023-08-06T07:18:53;4.00;;;3.70;;
1054;SDS011;516;51.482;7.120;2023-08-06T07:24:23;9.90;;;7.13;;
1054;SDS011;516;51.482;7.120;2023-08-06T07:29:52;6.23;;;3.80;;
1054;SDS011;516;51.482;7.120;2023-08-06T07:35:21;7.73;;;3.53;;
1054;SDS011;516;51.482;7.120;2023-08-06T07:40:51;5.23;;;3.23;;
1054;SDS011;516;51.482;7.120;2023-08-06T07:46:20;4.30;;;3.40;;
1054;SDS011;516;51.482;7.120;2023-08-06T07:51:50;4.00;;;3.70;;
1054;SDS011;516;51.482;7.120;2023-08-06T07:57:22;4.13;;;3.60;;
1054;SDS011;516;51.482;7.120;2023-08-06T08:02:52;4.33;;;3.93;;
1054;SDS011;516;51.482;7.120;2023-08-06T08:08:22;5.13;;;4.73;;
1054;SDS011;516;51.482;7.120;2023-08-06T08:13:51;6.30;;;4.10;;
1054;SDS011;516;51.482;7.120;2023-08-06T08:19:21;4.87;;;4.57;;
1054;SDS011;516;51.482;7.120;2023-08-06T08:24:50;5.40;;;4.90;;
1054;SDS011;516;51.482;7.120;2023-08-06T08:30:20;8.70;;;5.50;;
1054;SDS011;516;51.482;7.120;2023-08-06T08:35:50;5.13;;;4.83;;
1054;SDS011;516;51.482;7.120;2023-08-06T08:41:20;4.53;;;4.13;;
1054;SDS011;516;51.482;7.120;2023-08-06T08:46:50;6.50;;;4.30;;
1054;SDS011;516;51.482;7.120;2023-08-06T08:52:19;6.07;;;5.07;;
1054;SDS011;516;51.482;7.120;2023-08-06T09:03:57;7.80;;;5.27;;
1054;SDS011;516;51.482;7.120;2023-08-06T09:09:28;7.80;;;5.67;;
1054;SDS011;516;51.482;7.120;2023-08-06T09:14:59;7.83;;;5.10;;
1054;SDS011;516;51.482;7.120;2023-08-06T09:20:32;10.60;;;6.77;;
1054;SDS011;516;51.482;7.120;2023-08-06T09:26:03;7.47;;;5.60;;
1054;SDS011;516;51.482;7.120;2023-08-06T09:31:43;8.73;;;5.67;;
1054;SDS011;516;51.482;7.120;2023-08-06T09:37:37;8.60;;;6.17;;
1054;SDS011;516;51.482;7.120;2023-08-06T09:43:07;7.33;;;5.33;;
1054;SDS011;516;51.482;7.120;2023-08-06T09:48:37;6.30;;;4.70;;
1054;SDS011;516;51.482;7.120;2023-08-06T09:54:06;6.33;;;5.27;;
1054;SDS011;516;51.482;7.120;2023-08-06T10:08:43;5.87;;;5.37;;
1054;SDS011;516;51.482;7.120;2023-08-06T10:14:14;6.13;;;5.60;;
1054;SDS011;516;51.482;7.120;2023-08-06T10:19:46;5.30;;;4.80;;
1054;SDS011;516;51.482;7.120;2023-08-06T10:25:16;4.43;;;3.93;;
1054;SDS011;516;51.482;7.120;2023-08-06T10:30:47;5.13;;;4.63;;
1054;SDS011;516;51.482;7.120;2023-08-06T10:36:17;4.37;;;4.07;;
1054;SDS011;516;51.482;7.120;2023-08-06T10:41:47;5.60;;;5.10;;
1054;SDS011;516;51.482;7.120;2023-08-06T10:47:26;5.73;;;5.33;;
1054;SDS011;516;51.482;7.120;2023-08-06T10:52:59;6.10;;;5.60;;
1054;SDS011;516;51.482;7.120;2023-08-06T10:58:33;6.17;;;4.73;;
1054;SDS011;516;51.482;7.120;2023-08-06T11:04:03;9.13;;;5.80;;
1054;SDS011;516;51.482;7.120;2023-08-06T11:09:33;7.47;;;5.77;;
1054;SDS011;516;51.482;7.120;2023-08-06T11:15:03;6.13;;;5.53;;
1054;SDS011;516;51.482;7.120;2023-08-06T11:20:33;5.63;;;5.13;;
1054;SDS011;516;51.482;7.120;2023-08-06T11:26:03;5.63;;;5.13;;
1054;SDS011;516;51.482;7.120;2023-08-06T11:31:33;6.20;;;5.70;;
1054;SDS011;516;51.482;7.120;2023-08-06T11:37:05;8.03;;;7.33;;
1054;SDS011;516;51.482;7.120;2023-08-06T11:42:35;9.07;;;7.70;;
1054;SDS011;516;51.482;7.120;2023-08-06T11:48:05;11.50;;;8.17;;
1054;SDS011;516;51.482;7.120;2023-08-06T11:53:38;13.10;;;11.90;;
1054;SDS011;516;51.482;7.120;2023-08-06T12:05:16;5.63;;;4.57;;
1054;SDS011;516;51.482;7.120;2023-08-06T12:10:46;9.43;;;5.70;;
1054;SDS011;516;51.482;7.120;2023-08-06T12:16:16;6.20;;;5.60;;
1054;SDS011;516;51.482;7.120;2023-08-06T12:21:47;8.10;;;6.07;;
1054;SDS011;516;51.482;7.120;2023-08-06T12:27:17;7.50;;;5.63;;
1054;SDS011;516;51.482;7.120;2023-08-06T12:32:46;4.03;;;3.63;;
1054;SDS011;516;51.482;7.120;2023-08-06T12:38:16;4.03;;;2.93;;
1054;SDS011;516;51.482;7.120;2023-08-06T12:43:46;2.13;;;1.50;;
1054;SDS011;516;51.482;7.120;2023-08-06T12:49:15;2.07;;;1.43;;
1054;SDS011;516;51.482;7.120;2023-08-06T12:54:45;5.60;;;2.47;;
1054;SDS011;516;51.482;7.120;2023-08-06T13:09:35;1.90;;;1.20;;
1054;SDS011;516;51.482;7.120;2023-08-06T13:15:04;1.67;;;0.93;;
1054;SDS011;516;51.482;7.120;2023-08-06T13:20:33;2.30;;;1.10;;
1054;SDS011;516;51.482;7.120;2023-08-06T13:26:02;1.37;;;0.80;;
1054;SDS011;516;51.482;7.120;2023-08-06T13:31:32;2.07;;;0.90;;
1054;SDS011;516;51.482;7.120;2023-08-06T13:37:01;1.80;;;1.00;;
1054;SDS011;516;51.482;7.120;2023-08-06T13:42:30;3.10;;;1.70;;
1054;SDS011;516;51.482;7.120;2023-08-06T13:48:01;2.70;;;1.97;;
1054;SDS011;516;51.482;7.120;2023-08-06T13:53:32;2.60;;;1.40;;
1054;SDS011;516;51.482;7.120;2023-08-06T13:59:02;3.10;;;2.00;;
1054;SDS011;516;51.482;7.120;2023-08-06T14:04:31;3.53;;;2.70;;
1054;SDS011;516;51.482;7.120;2023-08-06T14:10:01;5.33;;;2.63;;
1054;SDS011;516;51.482;7.120;2023-08-06T14:15:31;3.73;;;3.40;;
1054;SDS011;516;51.482;7.120;2023-08-06T14:21:01;3.57;;;3.07;;
1054;SDS011;516;51.482;7.120;2023-08-06T14:26:31;5.83;;;4.03;;
1054;SDS011;516;51.482;7.120;2023-08-06T14:32:01;5.33;;;3.80;;
1054;SDS011;516;51.482;7.120;2023-08-06T14:37:31;6.43;;;4.47;;
1054;SDS011;516;51.482;7.120;2023-08-06T14:43:00;4.30;;;3.90;;
1054;SDS011;516;51.482;7.120;2023-08-06T14:48:31;6.30;;;4.80;;
1054;SDS011;516;51.482;7.120;2023-08-06T14:54:00;6.57;;;5.90;;
1054;SDS011;516;51.482;7.120;2023-08-06T15:05:37;7.00;;;4.30;;
1054;SDS011;516;51.482;7.120;2023-08-06T15:11:07;5.90;;;3.93;;
1054;SDS011;516;51.482;7.120;2023-08-06T15:16:37;4.50;;;3.60;;
1054;SDS011;516;51.482;7.120;2023-08-06T15:22:07;9.30;;;3.40;;
1054;SDS011;516;51.482;7.120;2023-08-06T15:27:40;5.87;;;3.93;;
1054;SDS011;516;51.482;7.120;2023-08-06T15:33:10;3.60;;;3.20;;
1054;SDS011;516;51.482;7.120;2023-08-06T15:38:40;4.97;;;3.23;;
1054;SDS011;516;51.482;7.120;2023-08-06T15:44:09;5.93;;;3.50;;
1054;SDS011;516;51.482;7.120;2023-08-06T15:49:39;3.67;;;3.03;;
1054;SDS011;516;51.482;7.120;2023-08-06T15:55:09;3.40;;;2.87;;
1054;SDS011;516;51.482;7.120;2023-08-06T16:09:49;3.27;;;2.63;;
1054;SDS011;516;51.482;7.120;2023-08-06T16:15:19;4.67;;;2.73;;
1054;SDS011;516;51.482;7.120;2023-08-06T16:20:48;4.00;;;2.83;;
1054;SDS011;516;51.482;7.120;2023-08-06T16:26:18;7.30;;;2.30;;
1054;SDS011;516;51.482;7.120;2023-08-06T16:31:48;2.83;;;2.20;;
1054;SDS011;516;51.482;7.120;2023-08-06T16:37:18;8.67;;;2.93;;
1054;SDS011;516;51.482;7.120;2023-08-06T16:42:47;3.40;;;2.77;;
1054;SDS011;516;51.482;7.120;2023-08-06T16:48:17;4.47;;;3.00;;
1054;SDS011;516;51.482;7.120;2023-08-06T16:53:47;4.27;;;3.43;;
1054;SDS011;516;51.482;7.120;2023-08-06T16:59:16;3.77;;;3.37;;
1054;SDS011;516;51.482;7.120;2023-08-06T17:04:46;5.43;;;3.37;;
1054;SDS011;516;51.482;7.120;2023-08-06T17:10:15;5.30;;;3.03;;
1054;SDS011;516;51.482;7.120;2023-08-06T17:15:48;3.57;;;3.10;;
1054;SDS011;516;51.482;7.120;2023-08-06T17:21:18;3.83;;;2.80;;
1054;SDS011;516;51.482;7.120;2023-08-06T17:26:47;4.77;;;3.47;;
1054;SDS011;516;51.482;7.120;2023-08-06T17:32:18;5.57;;;4.07;;
1054;SDS011;516;51.482;7.120;2023-08-06T17:37:48;5.03;;;3.87;;
1054;SDS011;516;51.482;7.120;2023-08-06T17:43:17;8.63;;;4.00;;
1054;SDS011;516;51.482;7.120;2023-08-06T17:48:47;5.03;;;3.70;;
1054;SDS011;516;51.482;7.120;2023-08-06T17:54:17;4.60;;;3.60;;
1054;SDS011;516;51.482;7.120;2023-08-06T17:59:28;4.70;;;3.27;;
1054;SDS011;516;51.482;7.120;2023-08-06T18:14:11;4.50;;;4.10;;
1054;SDS011;516;51.482;7.120;2023-08-06T18:19:40;4.10;;;3.17;;
1054;SDS011;516;51.482;7.120;2023-08-06T18:25:10;4.23;;;2.30;;
1054;SDS011;516;51.482;7.120;2023-08-06T18:30:39;4.23;;;1.70;;
1054;SDS011;516;51.482;7.120;2023-08-06T18:36:09;3.03;;;1.87;;
1054;SDS011;516;51.482;7.120;2023-08-06T18:41:39;5.03;;;2.03;;
1054;SDS011;516;51.482;7.120;2023-08-06T18:47:08;4.23;;;1.43;;
1054;SDS011;516;51.482;7.120;2023-08-06T18:52:38;5.93;;;3.23;;
1054;SDS011;516;51.482;7.120;2023-08-06T18:58:08;3.60;;;1.70;;
1054;SDS011;516;51.482;7.120;2023-08-06T19:03:38;5.50;;;1.67;;
1054;SDS011;516;51.482;7.120;2023-08-06T19:09:08;3.90;;;1.60;;
1054;SDS011;516;51.482;7.120;2023-08-06T19:14:37;3.40;;;1.53;;
1054;SDS011;516;51.482;7.120;2023-08-06T19:20:07;6.80;;;1.83;;
1054;SDS011;516;51.482;7.120;2023-08-06T19:25:46;4.07;;;1.73;;
1054;SDS011;516;51.482;7.120;2023-08-06T19:31:17;5.40;;;1.53;;
1054;SDS011;516;51.482;7.120;2023-08-06T19:36:47;5.03;;;2.60;;
1054;SDS011;516;51.482;7.120;2023-08-06T19:42:17;6.93;;;1.97;;
1054;SDS011;516;51.482;7.120;2023-08-06T19:47:46;5.40;;;2.23;;
1054;SDS011;516;51.482;7.120;2023-08-06T19:53:16;5.20;;;1.73;;
1054;SDS011;516;51.482;7.120;2023-08-06T19:58:45;14.70;;;1.93;;
1054;SDS011;516;51.482;7.120;2023-08-06T20:04:18;6.17;;;2.13;;
1054;SDS011;516;51.482;7.120;2023-08-06T20:19:15;5.50;;;2.80;;
1054;SDS011;516;51.482;7.120;2023-08-06T20:24:44;6.57;;;2.50;;
1054;SDS011;516;51.482;7.120;2023-08-06T20:30:13;3.87;;;2.10;;
1054;SDS011;516;51.482;7.120;2023-08-06T20:35:42;5.87;;;2.67;;
1054;SDS011;516;51.482;7.120;2023-08-06T20:41:11;4.80;;;2.60;;
1054;SDS011;516;51.482;7.120;2023-08-06T20:46:40;6.40;;;2.97;;
1054;SDS011;516;51.482;7.120;2023-08-06T20:52:10;8.80;;;2.93;;
1054;SDS011;516;51.482;7.120;2023-08-06T20:57:40;5.87;;;3.30;;
1054;SDS011;516;51.482;7.120;2023-08-06T21:03:10;5.83;;;3.73;;
1054;SDS011;516;51.482;7.120;2023-08-06T21:08:39;12.83;;;5.90;;
1054;SDS011;516;51.482;7.120;2023-08-06T21:14:09;10.13;;;6.70;;
1054;SDS011;516;51.482;7.120;2023-08-06T21:19:39;10.90;;;6.53;;
1054;SDS011;516;51.482;7.120;2023-08-06T21:25:08;8.03;;;5.10;;
1054;SDS011;516;51.482;7.120;2023-08-06T21:30:38;8.73;;;3.10;;
1054;SDS011;516;51.482;7.120;2023-08-06T21:36:08;8.37;;;4.17;;
1054;SDS011;516;51.482;7.120;2023-08-06T21:41:38;10.63;;;4.30;;
1054;SDS011;516;51.482;7.120;2023-08-06T21:47:07;6.03;;;2.83;;
1054;SDS011;516;51.482;7.120;2023-08-06T21:52:37;7.57;;;3.30;;
1054;SDS011;516;51.482;7.120;2023-08-06T21:58:07;8.50;;;4.90;;
1054;SDS011;516;51.482;7.120;2023-08-06T22:03:37;8.97;;;6.57;;
1054;SDS011;516;51.482;7.120;2023-08-06T22:09:06;10.07;;;5.90;;
1054;SDS011;516;51.482;7.120;2023-08-06T22:23:46;10.43;;;6.80;;
1054;SDS011;516;51.482;7.120;2023-08-06T22:29:16;9.00;;;6.97;;
1054;SDS011;516;51.482;7.120;2023-08-06T22:34:46;10.97;;;7.73;;
1054;SDS011;516;51.482;7.120;2023-08-06T22:40:16;10.10;;;6.67;;
1054;SDS011;516;51.482;7.120;2023-08-06T22:45:45;10.73;;;9.63;;
1054;SDS011;516;51.482;7.120;2023-08-06T22:51:15;12.97;;;9.20;;
1054;SDS011;516;51.482;7.120;2023-08-06T22:56:45;13.77;;;9.90;;
1054;SDS011;516;51.482;7.120;2023-08-06T23:02:14;15.60;;;7.60;;
1054;SDS011;516;51.482;7.120;2023-08-06T23:07:44;8.50;;;6.37;;
1054;SDS011;516;51.482;7.120;2023-08-06T23:13:14;8.67;;;6.17;;
1054;SDS011;516;51.482;7.120;2023-08-06T23:18:43;6.30;;;4.60;;
1054;SDS011;516;51.482;7.120;2023-08-06T23:24:13;7.97;;;3.67;;
1054;SDS011;516;51.482;7.120;2023-08-06T23:29:43;11.27;;;5.83;;
1054;SDS011;516;51.482;7.120;2023-08-06T23:35:12;8.70;;;5.73;;
1054;SDS011;516;51.482;7.120;2023-08-06T23:40:42;10.43;;;7.43;;
1054;SDS011;516;51.482;7.120;2023-08-06T23:46:12;10.97;;;5.90;;
1054;SDS011;516;51.482;7.120;2023-08-06T23:51:42;15.20;;;7.13;;
1054;SDS011;516;51.482;7.120;2023-08-06T23:57:11;9.07;;;7.20;;
